Clarksburg, WV

8:28 PM EST on December 11, 2017 (GMT -0500)
Benedum

Weather History for KCKB - February, 2012

Change the Weather History Date:

Saturday, February 11, 2012

  Actual Average Record
Temperature  
Mean Temperature 22 °F 33 °F  
Max Temperature 30 °F 42 °F 73 °F (1999)
Min Temperature 14 °F 24 °F -8 °F (1979)
Degree Days  
Heating Degree Days 43 32  
Month to date heating degree days 358  
Since 1 July heating degree days 3450  
Cooling Degree Days 0 0  
Month to date cooling degree days 0  
Year to date cooling degree days 0  
Moisture  
Dew Point 17 °F    
Average Humidity 79    
Maximum Humidity 93    
Minimum Humidity 62    
Precipitation  
Precipitation 0.00 in 0.11 in 0.73 in (1986)
Month to date precipitation 1.26  
Year to date precipitation 4.71  
Sea Level Pressure  
Sea Level Pressure 29.95 in    
Wind  
Wind Speed 8 mph (West)    
Max Wind Speed 20 mph    
Max Gust Speed 26 mph    
Visibility 3 miles    
Events Snow    
T = Trace of Precipitation, MM = Missing Value Source: NWS Daily Summary

Daily Weather History Graph

Daily Weather History Graph

Search for Another Location

Airport or City:

Trip Planner

Search our weather history database for the weather conditions in past years. The results will help you decide how hot, cold, wet, or windy it might be!

Date:

Astronomy

Feb. 11, 2012 Rise Set
Actual Time 7:18 AM EST 5:52 PM EST
Civil Twilight 6:50 AM EST 6:20 PM EST
Nautical Twilight 6:18 AM EST 6:52 PM EST
Astronomical Twilight 5:47 AM EST 7:23 PM EST
Moon 10:36 PM EST (2/11) 9:01 AM EST (2/11)
Length of Visible Light 11h 29m
Length of Day
10h 34m
Waning Gibbous, 82% of the Moon is Illuminated
Feb 11
Waning Gibbous
Feb 14
Last Quarter
Feb 21
New
Feb 29
First Quarter
Mar 8
Full

Hourly Weather History & Observations

Time (EST) Temp. Windchill Dew Point Humidity Pressure Visibility Wind Dir Wind Speed Gust Speed Precip Events Conditions
12:16 AM 30.2 °F 26.7 °F 26.6 °F 86% 29.89 in 5.0 mi SW 3.5 mph - 0.00 in Snow Light Snow
12:43 AM 30.2 °F 25.4 °F 26.6 °F 86% 29.88 in 5.0 mi WSW 4.6 mph - 0.00 in Snow Light Snow
12:53 AM 30.0 °F 24.1 °F 26.1 °F 85% 29.90 in 7.0 mi WSW 5.8 mph - 0.00 in   Overcast
1:06 AM 30.2 °F 26.7 °F 26.6 °F 86% 29.88 in 6.0 mi SW 3.5 mph - 0.00 in Snow Light Snow
1:38 AM 30.2 °F 26.7 °F 26.6 °F 86% 29.87 in 5.0 mi WSW 3.5 mph - 0.00 in Snow Light Snow
1:53 AM 30.0 °F 26.5 °F 26.1 °F 85% 29.88 in 6.0 mi SW 3.5 mph - 0.00 in   Overcast
2:53 AM 30.0 °F 26.5 °F 27.0 °F 88% 29.86 in 3.0 mi South 3.5 mph - 0.00 in Snow Light Snow
3:40 AM 30.2 °F 25.4 °F 26.6 °F 86% 29.81 in 5.0 mi SSW 4.6 mph - 0.00 in   Overcast
3:53 AM 30.0 °F 26.5 °F 27.0 °F 88% 29.82 in 5.0 mi SSW 3.5 mph - 0.00 in Snow Light Snow
4:14 AM 30.2 °F 25.4 °F 26.6 °F 86% 29.79 in 2.5 mi SSW 4.6 mph - 0.00 in Snow Light Snow
4:34 AM 30.2 °F 25.4 °F 26.6 °F 86% 29.79 in 3.0 mi SSW 4.6 mph - 0.00 in Snow Light Snow
4:53 AM 30.0 °F 25.2 °F 27.0 °F 88% 29.80 in 3.0 mi South 4.6 mph - 0.00 in Snow Light Snow
5:18 AM 30.2 °F 23.4 °F 26.6 °F 86% 29.77 in 3.0 mi South 6.9 mph - 0.00 in Snow Light Snow
5:23 AM 30.2 °F 24.3 °F 26.6 °F 86% 29.77 in 2.5 mi South 5.8 mph - 0.00 in Snow Light Snow
5:38 AM 30.2 °F 25.4 °F 26.6 °F 86% 29.77 in 1.5 mi South 4.6 mph - 0.00 in Snow Light Snow
5:51 AM 30.2 °F 25.4 °F 26.6 °F 86% 29.77 in 2.5 mi SSW 4.6 mph - 0.00 in Snow Light Snow
5:53 AM 30.0 °F 25.2 °F 27.0 °F 88% 29.78 in 2.5 mi SSW 4.6 mph - 0.00 in Snow Light Snow
6:02 AM 30.2 °F 25.4 °F 26.6 °F 86% 29.77 in 1.2 mi SSW 4.6 mph - 0.00 in Snow Light Snow
6:10 AM 30.2 °F - 26.6 °F 86% 29.77 in 1.5 mi Calm Calm - 0.00 in Snow Light Snow
6:53 AM 30.0 °F 26.5 °F 28.0 °F 92% 29.78 in 1.0 mi SSW 3.5 mph - 0.00 in Snow Light Snow
7:03 AM 30.2 °F 26.7 °F 26.6 °F 86% 29.77 in 1.5 mi South 3.5 mph - 0.00 in Snow Light Snow
7:36 AM 30.2 °F 25.4 °F 28.4 °F 93% 29.78 in 0.8 mi SSW 4.6 mph - 0.00 in Snow Light Snow
7:53 AM 30.0 °F 23.2 °F 28.0 °F 92% 29.80 in 1.0 mi SW 6.9 mph - 0.00 in Snow Light Snow
8:00 AM 30.2 °F 24.3 °F 28.4 °F 93% 29.78 in 1.0 mi SW 5.8 mph - 0.00 in Snow Light Snow
8:31 AM 30.2 °F 22.6 °F 28.4 °F 93% 29.79 in 0.8 mi WSW 8.1 mph - 0.00 in Snow Light Snow
8:40 AM 30.2 °F 21.9 °F 28.4 °F 93% 29.79 in 0.8 mi WSW 9.2 mph - 0.00 in Snow Light Snow
8:49 AM 30.2 °F 22.6 °F 28.4 °F 93% 29.79 in 1.0 mi WSW 8.1 mph - 0.00 in Snow Light Snow
8:53 AM 30.9 °F 24.3 °F 28.0 °F 89% 29.81 in 1.0 mi West 6.9 mph - 0.00 in Snow Light Snow
9:53 AM 26.1 °F 13.6 °F 21.0 °F 81% 29.87 in 1.0 mi West 16.1 mph 23.0 mph 0.00 in Snow Light Snow
10:53 AM 21.9 °F 8.7 °F 15.1 °F 75% 29.93 in 1.0 mi West 15.0 mph 20.7 mph 0.00 in Snow Light Snow
11:00 AM 21.2 °F 7.3 °F 15.8 °F 80% 29.91 in 2.0 mi West 16.1 mph 20.7 mph 0.00 in Snow Light Snow
11:22 AM 21.2 °F 9.5 °F 15.8 °F 80% 29.92 in 1.8 mi WSW 11.5 mph 19.6 mph 0.00 in Snow Light Snow
11:38 AM 19.4 °F 6.6 °F 15.8 °F 86% 29.92 in 0.8 mi West 12.7 mph 23.0 mph 0.00 in Snow Light Snow
11:53 AM 19.9 °F 7.3 °F 14.0 °F 78% 29.95 in 1.0 mi West 12.7 mph 21.9 mph 0.00 in Snow Light Snow
12:53 PM 19.9 °F 7.9 °F 12.0 °F 71% 29.94 in 1.5 mi West 11.5 mph 23.0 mph 0.00 in Snow Light Snow
1:53 PM 19.9 °F 9.3 °F 12.0 °F 71% 29.96 in 1.5 mi West 9.2 mph 18.4 mph 0.00 in Snow Light Snow
1:58 PM 19.4 °F 4.5 °F 12.2 °F 74% 29.93 in 4.0 mi WNW 17.3 mph 26.5 mph 0.00 in Snow Light Snow
2:13 PM 19.4 °F 5.0 °F 10.4 °F 68% 29.93 in 0.8 mi West 16.1 mph 25.3 mph 0.00 in Snow Light Snow
2:53 PM 19.0 °F 4.0 °F 12.0 °F 74% 29.97 in 2.0 mi West 17.3 mph 23.0 mph 0.00 in Snow Light Snow
3:38 PM 19.4 °F 5.0 °F 10.4 °F 68% 29.96 in 2.0 mi West 16.1 mph 20.7 mph 0.00 in Snow Light Snow
3:45 PM 19.4 °F 5.5 °F 10.4 °F 68% 29.96 in 1.5 mi West 15.0 mph 20.7 mph 0.00 in Snow Light Snow
3:53 PM 19.0 °F 6.1 °F 10.9 °F 71% 29.99 in 1.5 mi WNW 12.7 mph 20.7 mph 0.00 in Snow Light Snow
4:25 PM 19.4 °F 8.6 °F 10.4 °F 68% 29.98 in 3.0 mi West 9.2 mph 19.6 mph 0.00 in Snow Light Snow
4:48 PM 17.6 °F 2.2 °F 10.4 °F 73% 29.98 in 4.0 mi WNW 17.3 mph 24.2 mph 0.00 in Snow Light Snow
4:53 PM 18.0 °F 4.8 °F 10.0 °F 71% 30.02 in 5.0 mi WNW 12.7 mph 24.2 mph 0.00 in Snow Light Snow
5:06 PM 17.6 °F 4.3 °F 10.4 °F 73% 29.99 in 2.5 mi West 12.7 mph 23.0 mph 0.00 in Snow Light Snow
5:53 PM 18.0 °F 4.8 °F 10.0 °F 71% 30.05 in 2.0 mi WNW 12.7 mph 19.6 mph 0.00 in Snow Light Snow
5:59 PM 17.6 °F 3.7 °F 10.4 °F 73% 30.02 in 3.0 mi WNW 13.8 mph 20.7 mph 0.00 in Snow Light Snow
6:08 PM 17.6 °F 2.7 °F 10.4 °F 73% 30.03 in 2.5 mi WNW 16.1 mph 21.9 mph 0.00 in Snow Light Snow
6:16 PM 17.6 °F 2.7 °F 10.4 °F 73% 30.03 in 3.0 mi West 16.1 mph 23.0 mph 0.00 in Snow Light Snow
6:34 PM 17.6 °F 4.3 °F 10.4 °F 73% 30.04 in 2.5 mi WNW 12.7 mph - 0.00 in Snow Light Snow
6:43 PM 17.6 °F 4.3 °F 10.4 °F 73% 30.05 in 4.0 mi WNW 12.7 mph - 0.00 in Snow Light Snow
6:53 PM 17.1 °F 3.6 °F 10.9 °F 77% 30.09 in 1.0 mi WNW 12.7 mph 18.4 mph 0.00 in Snow Light Snow
7:00 PM 17.6 °F 5.0 °F 10.4 °F 73% 30.06 in 1.5 mi West 11.5 mph - 0.00 in Snow Light Snow
7:35 PM 15.8 °F 0.3 °F 10.4 °F 79% 30.07 in 2.0 mi West 16.1 mph 19.6 mph 0.00 in Snow Light Snow
7:43 PM 15.8 °F 2.1 °F 10.4 °F 79% 30.08 in 1.5 mi West 12.7 mph - 0.00 in Snow Light Snow
7:53 PM 16.0 °F -0.9 °F 10.0 °F 77% 30.12 in 1.5 mi West 19.6 mph 26.5 mph 0.00 in Snow Light Snow
8:06 PM 15.8 °F 0.3 °F 10.4 °F 79% 30.09 in 1.2 mi WNW 16.1 mph 20.7 mph 0.00 in Snow Light Snow
8:53 PM 15.1 °F -0.6 °F 9.0 °F 77% 30.15 in 1.2 mi WNW 16.1 mph - 0.00 in Snow Light Snow
9:01 PM 15.8 °F 0.3 °F 8.6 °F 73% 30.12 in 2.5 mi WNW 16.1 mph 23.0 mph 0.00 in Snow Light Snow
9:04 PM 15.8 °F 0.3 °F 8.6 °F 73% 30.12 in 3.0 mi WNW 16.1 mph 23.0 mph 0.00 in Snow Light Snow
9:16 PM 14.0 °F -1.4 °F 8.6 °F 79% 30.13 in 2.5 mi WNW 15.0 mph 25.3 mph 0.00 in Snow Light Snow
9:25 PM 14.0 °F -1.4 °F 8.6 °F 79% 30.13 in 3.0 mi WNW 15.0 mph 21.9 mph 0.00 in Snow Light Snow
9:53 PM 14.0 °F -0.2 °F 8.1 °F 77% 30.17 in 4.0 mi WNW 12.7 mph 20.7 mph 0.00 in Snow Light Snow
10:31 PM 14.0 °F -0.2 °F 6.8 °F 73% 30.15 in 10.0 mi WNW 12.7 mph 21.9 mph 0.00 in   Overcast
10:53 PM 14.0 °F -0.8 °F 3.0 °F 62% 30.20 in 10.0 mi NW 13.8 mph 23.0 mph 0.00 in   Overcast
11:51 PM 14.0 °F 1.2 °F 3.2 °F 62% 30.17 in 10.0 mi NW 10.4 mph - N/A   Overcast
11:53 PM 14.0 °F 2.0 °F 3.0 °F 62% 30.22 in 10.0 mi NW 9.2 mph - N/A   Overcast